sensor_id;sensor_type;location;lat;lon;timestamp;pressure;altitude;pressure_sealevel;temperature;humidity
20009;BME280;10165;42.662;23.260;2022-10-18T00:02:14;95645.06;;;10.78;52.30
20009;BME280;10165;42.662;23.260;2022-10-18T00:04:41;95640.91;;;10.94;51.92
20009;BME280;10165;42.662;23.260;2022-10-18T00:07:08;95640.03;;;11.16;51.43
20009;BME280;10165;42.662;23.260;2022-10-18T00:09:34;95635.72;;;10.97;51.80
20009;BME280;10165;42.662;23.260;2022-10-18T00:12:01;95641.41;;;11.04;51.63
20009;BME280;10165;42.662;23.260;2022-10-18T00:14:28;95635.97;;;11.18;51.26
20009;BME280;10165;42.662;23.260;2022-10-18T00:16:54;95639.78;;;11.43;50.72
20009;BME280;10165;42.662;23.260;2022-10-18T00:19:21;95627.06;;;11.48;50.56
20009;BME280;10165;42.662;23.260;2022-10-18T00:21:53;95630.97;;;11.34;50.94
20009;BME280;10165;42.662;23.260;2022-10-18T00:24:20;95620.00;;;10.96;51.43
20009;BME280;10165;42.662;23.260;2022-10-18T00:26:47;95619.47;;;10.85;52.11
20009;BME280;10165;42.662;23.260;2022-10-18T00:29:14;95616.56;;;10.73;52.18
20009;BME280;10165;42.662;23.260;2022-10-18T00:31:42;95617.91;;;10.93;51.62
20009;BME280;10165;42.662;23.260;2022-10-18T00:34:14;95607.88;;;10.98;50.87
20009;BME280;10165;42.662;23.260;2022-10-18T00:36:42;95611.38;;;10.68;51.90
20009;BME280;10165;42.662;23.260;2022-10-18T00:39:16;95607.19;;;10.45;52.68
20009;BME280;10165;42.662;23.260;2022-10-18T00:41:44;95605.44;;;10.40;52.90
20009;BME280;10165;42.662;23.260;2022-10-18T00:46:43;95597.31;;;10.54;52.46
20009;BME280;10165;42.662;23.260;2022-10-18T00:49:21;95596.94;;;10.69;52.11
20009;BME280;10165;42.662;23.260;2022-10-18T00:51:55;95593.38;;;10.51;52.28
20009;BME280;10165;42.662;23.260;2022-10-18T00:54:24;95601.59;;;10.11;53.78
20009;BME280;10165;42.662;23.260;2022-10-18T00:56:51;95597.69;;;10.30;53.14
20009;BME280;10165;42.662;23.260;2022-10-18T00:59:18;95597.34;;;10.09;53.33
20009;BME280;10165;42.662;23.260;2022-10-18T01:01:45;95596.53;;;10.23;53.40
20009;BME280;10165;42.662;23.260;2022-10-18T01:04:13;95589.34;;;10.32;52.87
20009;BME280;10165;42.662;23.260;2022-10-18T01:12:15;95590.13;;;10.10;53.66
20009;BME280;10165;42.662;23.260;2022-10-18T01:14:53;95585.75;;;10.36;52.95
20009;BME280;10165;42.662;23.260;2022-10-18T01:17:48;95577.69;;;10.28;52.89
20009;BME280;10165;42.662;23.260;2022-10-18T01:23:04;95575.34;;;10.57;52.31
20009;BME280;10165;42.662;23.260;2022-10-18T01:31:12;95577.00;;;10.44;52.66
20009;BME280;10165;42.662;23.260;2022-10-18T01:33:51;95572.00;;;10.51;52.24
20009;BME280;10165;42.662;23.260;2022-10-18T01:38:51;95576.19;;;10.75;51.67
20009;BME280;10165;42.662;23.260;2022-10-18T01:41:20;95579.03;;;10.78;51.69
20009;BME280;10165;42.662;23.260;2022-10-18T01:43:51;95569.13;;;10.79;51.77
20009;BME280;10165;42.662;23.260;2022-10-18T01:46:21;95567.91;;;10.54;52.16
20009;BME280;10165;42.662;23.260;2022-10-18T01:48:50;95565.28;;;10.63;52.28
20009;BME280;10165;42.662;23.260;2022-10-18T01:51:21;95554.56;;;10.54;52.06
20009;BME280;10165;42.662;23.260;2022-10-18T01:53:49;95563.75;;;10.70;51.97
20009;BME280;10165;42.662;23.260;2022-10-18T01:56:23;95571.44;;;10.63;51.82
20009;BME280;10165;42.662;23.260;2022-10-18T02:10:02;95552.13;;;10.35;53.02
20009;BME280;10165;42.662;23.260;2022-10-18T02:12:33;95549.09;;;10.59;51.92
20009;BME280;10165;42.662;23.260;2022-10-18T02:15:03;95549.25;;;10.63;51.80
20009;BME280;10165;42.662;23.260;2022-10-18T02:17:32;95548.47;;;10.23;52.49
20009;BME280;10165;42.662;23.260;2022-10-18T02:20:00;95554.75;;;10.04;53.14
20009;BME280;10165;42.662;23.260;2022-10-18T02:22:31;95545.31;;;9.76;53.38
20009;BME280;10165;42.662;23.260;2022-10-18T02:25:02;95553.00;;;9.55;53.95
20009;BME280;10165;42.662;23.260;2022-10-18T02:27:31;95545.84;;;9.87;53.60
20009;BME280;10165;42.662;23.260;2022-10-18T02:29:58;95543.47;;;9.41;54.17
20009;BME280;10165;42.662;23.260;2022-10-18T02:32:52;95543.16;;;9.06;55.27
20009;BME280;10165;42.662;23.260;2022-10-18T02:35:29;95557.38;;;9.16;55.04
20009;BME280;10165;42.662;23.260;2022-10-18T02:37:58;95555.69;;;9.06;55.71
20009;BME280;10165;42.662;23.260;2022-10-18T02:40:28;95556.94;;;9.22;55.56
20009;BME280;10165;42.662;23.260;2022-10-18T02:42:57;95561.25;;;9.45;54.83
20009;BME280;10165;42.662;23.260;2022-10-18T02:45:25;95558.66;;;9.76;54.11
20009;BME280;10165;42.662;23.260;2022-10-18T02:47:52;95555.38;;;9.79;53.88
20009;BME280;10165;42.662;23.260;2022-10-18T02:50:19;95561.78;;;9.56;54.68
20009;BME280;10165;42.662;23.260;2022-10-18T02:52:46;95559.44;;;9.77;54.09
20009;BME280;10165;42.662;23.260;2022-10-18T02:55:12;95555.22;;;9.40;54.85
20009;BME280;10165;42.662;23.260;2022-10-18T02:57:39;95551.13;;;9.56;54.62
20009;BME280;10165;42.662;23.260;2022-10-18T03:00:06;95553.06;;;9.42;54.47
20009;BME280;10165;42.662;23.260;2022-10-18T03:02:33;95556.16;;;9.57;54.46
20009;BME280;10165;42.662;23.260;2022-10-18T03:05:00;95554.72;;;9.02;54.92
20009;BME280;10165;42.662;23.260;2022-10-18T03:07:27;95565.56;;;8.51;56.78
20009;BME280;10165;42.662;23.260;2022-10-18T03:09:54;95547.59;;;8.97;56.27
20009;BME280;10165;42.662;23.260;2022-10-18T03:12:20;95557.22;;;9.34;55.09
20009;BME280;10165;42.662;23.260;2022-10-18T03:14:47;95556.84;;;9.13;55.36
20009;BME280;10165;42.662;23.260;2022-10-18T03:17:13;95551.50;;;9.27;55.10
20009;BME280;10165;42.662;23.260;2022-10-18T03:19:40;95551.72;;;9.53;54.44
20009;BME280;10165;42.662;23.260;2022-10-18T03:22:07;95555.91;;;9.45;54.72
20009;BME280;10165;42.662;23.260;2022-10-18T03:24:34;95561.25;;;9.45;54.21
20009;BME280;10165;42.662;23.260;2022-10-18T03:27:00;95551.75;;;9.39;54.77
20009;BME280;10165;42.662;23.260;2022-10-18T03:29:27;95547.09;;;9.45;54.55
20009;BME280;10165;42.662;23.260;2022-10-18T03:31:54;95548.16;;;9.57;54.68
20009;BME280;10165;42.662;23.260;2022-10-18T03:34:20;95550.75;;;9.49;55.00
20009;BME280;10165;42.662;23.260;2022-10-18T03:36:47;95545.31;;;9.76;54.30
20009;BME280;10165;42.662;23.260;2022-10-18T03:39:14;95550.03;;;9.79;53.85
20009;BME280;10165;42.662;23.260;2022-10-18T03:41:40;95544.69;;;9.57;54.16
20009;BME280;10165;42.662;23.260;2022-10-18T03:44:07;95547.09;;;9.81;53.76
20009;BME280;10165;42.662;23.260;2022-10-18T03:46:34;95552.88;;;9.83;54.00
20009;BME280;10165;42.662;23.260;2022-10-18T03:49:00;95557.91;;;9.62;54.11
20009;BME280;10165;42.662;23.260;2022-10-18T03:51:27;95552.59;;;9.84;53.63
20009;BME280;10165;42.662;23.260;2022-10-18T03:53:53;95558.66;;;9.76;53.99
20009;BME280;10165;42.662;23.260;2022-10-18T03:56:20;95554.34;;;9.67;53.91
20009;BME280;10165;42.662;23.260;2022-10-18T03:58:47;95561.88;;;9.65;54.16
20009;BME280;10165;42.662;23.260;2022-10-18T04:01:13;95568.00;;;9.29;54.55
20009;BME280;10165;42.662;23.260;2022-10-18T04:03:40;95567.84;;;9.48;54.46
20009;BME280;10165;42.662;23.260;2022-10-18T04:06:07;95558.28;;;9.69;54.05
20009;BME280;10165;42.662;23.260;2022-10-18T04:08:35;95563.75;;;9.86;53.30
20009;BME280;10165;42.662;23.260;2022-10-18T04:11:06;95550.53;;;10.03;53.10
20009;BME280;10165;42.662;23.260;2022-10-18T04:13:34;95549.44;;;9.82;53.90
20009;BME280;10165;42.662;23.260;2022-10-18T04:16:00;95545.75;;;9.92;53.32
20009;BME280;10165;42.662;23.260;2022-10-18T04:18:27;95555.38;;;10.01;53.20
20009;BME280;10165;42.662;23.260;2022-10-18T04:20:54;95544.56;;;10.06;53.25
20009;BME280;10165;42.662;23.260;2022-10-18T04:23:20;95552.16;;;9.91;53.32
20009;BME280;10165;42.662;23.260;2022-10-18T04:25:47;95558.28;;;9.91;53.26
20009;BME280;10165;42.662;23.260;2022-10-18T04:28:14;95553.25;;;9.68;53.56
20009;BME280;10165;42.662;23.260;2022-10-18T04:30:40;95559.50;;;9.27;54.48
20009;BME280;10165;42.662;23.260;2022-10-18T04:33:07;95555.59;;;9.47;54.11
20009;BME280;10165;42.662;23.260;2022-10-18T04:35:34;95546.50;;;9.48;54.48
20009;BME280;10165;42.662;23.260;2022-10-18T04:38:00;95549.84;;;9.76;53.36
20009;BME280;10165;42.662;23.260;2022-10-18T04:40:27;95556.63;;;9.59;53.97
20009;BME280;10165;42.662;23.260;2022-10-18T04:42:54;95550.84;;;9.44;54.23
20009;BME280;10165;42.662;23.260;2022-10-18T04:45:21;95558.22;;;9.25;54.87
20009;BME280;10165;42.662;23.260;2022-10-18T04:47:47;95557.41;;;8.88;55.68
20009;BME280;10165;42.662;23.260;2022-10-18T04:50:39;95556.44;;;8.25;57.79
20009;BME280;10165;42.662;23.260;2022-10-18T04:53:29;95553.16;;;8.00;59.15
20009;BME280;10165;42.662;23.260;2022-10-18T04:55:56;95555.59;;;8.29;58.61
20009;BME280;10165;42.662;23.260;2022-10-18T04:58:23;95542.22;;;8.61;57.77
20009;BME280;10165;42.662;23.260;2022-10-18T05:00:50;95540.13;;;8.99;56.90
20009;BME280;10165;42.662;23.260;2022-10-18T05:03:16;95536.06;;;9.38;55.61
20009;BME280;10165;42.662;23.260;2022-10-18T05:05:43;95534.00;;;9.35;55.77
20009;BME280;10165;42.662;23.260;2022-10-18T05:08:29;95532.69;;;9.10;56.65
20009;BME280;10165;42.662;23.260;2022-10-18T05:10:56;95541.00;;;8.40;57.71
20009;BME280;10165;42.662;23.260;2022-10-18T05:13:23;95537.28;;;8.41;58.00
20009;BME280;10165;42.662;23.260;2022-10-18T05:15:50;95534.41;;;8.65;57.66
20009;BME280;10165;42.662;23.260;2022-10-18T05:18:17;95532.94;;;8.45;57.91
20009;BME280;10165;42.662;23.260;2022-10-18T05:20:43;95545.06;;;8.38;58.44
20009;BME280;10165;42.662;23.260;2022-10-18T05:23:10;95534.50;;;8.87;57.50
20009;BME280;10165;42.662;23.260;2022-10-18T05:25:38;95534.88;;;9.08;56.84
20009;BME280;10165;42.662;23.260;2022-10-18T05:28:05;95537.59;;;9.17;56.65
20009;BME280;10165;42.662;23.260;2022-10-18T05:30:46;95539.59;;;8.97;57.26
20009;BME280;10165;42.662;23.260;2022-10-18T05:33:13;95541.56;;;9.05;56.87
20009;BME280;10165;42.662;23.260;2022-10-18T05:35:39;95540.31;;;9.03;57.01
20009;BME280;10165;42.662;23.260;2022-10-18T05:38:06;95544.41;;;9.23;56.54
20009;BME280;10165;42.662;23.260;2022-10-18T05:40:33;95543.19;;;8.79;57.82
20009;BME280;10165;42.662;23.260;2022-10-18T05:43:00;95546.38;;;9.17;57.07
20009;BME280;10165;42.662;23.260;2022-10-18T05:45:27;95546.19;;;9.27;56.71
20009;BME280;10165;42.662;23.260;2022-10-18T05:47:54;95540.31;;;9.39;56.48
20009;BME280;10165;42.662;23.260;2022-10-18T05:50:20;95545.13;;;9.50;56.45
20009;BME280;10165;42.662;23.260;2022-10-18T05:52:47;95545.50;;;9.57;56.21
20009;BME280;10165;42.662;23.260;2022-10-18T05:55:14;95550.09;;;9.66;56.21
20009;BME280;10165;42.662;23.260;2022-10-18T05:57:40;95550.25;;;9.47;56.04
20009;BME280;10165;42.662;23.260;2022-10-18T06:00:08;95553.00;;;9.20;56.91
20009;BME280;10165;42.662;23.260;2022-10-18T06:02:34;95548.88;;;9.13;57.18
20009;BME280;10165;42.662;23.260;2022-10-18T06:05:01;95551.31;;;9.24;57.53
20009;BME280;10165;42.662;23.260;2022-10-18T06:07:28;95551.56;;;9.36;56.84
20009;BME280;10165;42.662;23.260;2022-10-18T06:09:55;95553.78;;;9.78;56.18
20009;BME280;10165;42.662;23.260;2022-10-18T06:12:21;95555.19;;;9.98;55.71
20009;BME280;10165;42.662;23.260;2022-10-18T06:14:48;95552.34;;;9.94;55.48
20009;BME280;10165;42.662;23.260;2022-10-18T06:17:15;95548.59;;;9.95;55.41
20009;BME280;10165;42.662;23.260;2022-10-18T06:19:41;95544.56;;;10.06;55.19
20009;BME280;10165;42.662;23.260;2022-10-18T06:22:10;95540.91;;;10.25;54.77
20009;BME280;10165;42.662;23.260;2022-10-18T06:24:37;95540.22;;;10.41;54.19
20009;BME280;10165;42.662;23.260;2022-10-18T06:27:04;95541.19;;;9.70;55.27
20009;BME280;10165;42.662;23.260;2022-10-18T06:29:35;95549.19;;;9.70;55.68
20009;BME280;10165;42.662;23.260;2022-10-18T06:32:03;95543.94;;;10.09;55.00
20009;BME280;10165;42.662;23.260;2022-10-18T06:34:31;95545.63;;;10.50;54.09
20009;BME280;10165;42.662;23.260;2022-10-18T06:36:58;95545.38;;;10.69;53.73
20009;BME280;10165;42.662;23.260;2022-10-18T06:39:24;95539.88;;;10.65;53.50
20009;BME280;10165;42.662;23.260;2022-10-18T06:41:52;95535.59;;;10.64;53.63
20009;BME280;10165;42.662;23.260;2022-10-18T06:44:19;95546.00;;;10.74;53.35
20009;BME280;10165;42.662;23.260;2022-10-18T06:46:47;95546.38;;;10.90;53.00
20009;BME280;10165;42.662;23.260;2022-10-18T06:49:15;95544.03;;;10.88;53.10
20009;BME280;10165;42.662;23.260;2022-10-18T06:51:44;95532.41;;;11.01;53.09
20009;BME280;10165;42.662;23.260;2022-10-18T06:54:11;95549.44;;;11.23;52.77
20009;BME280;10165;42.662;23.260;2022-10-18T06:56:43;95535.47;;;11.34;52.48
20009;BME280;10165;42.662;23.260;2022-10-18T06:59:10;95542.19;;;11.32;52.56
20009;BME280;10165;42.662;23.260;2022-10-18T07:01:37;95541.09;;;11.24;52.33
20009;BME280;10165;42.662;23.260;2022-10-18T07:04:04;95540.47;;;11.27;52.29
20009;BME280;10165;42.662;23.260;2022-10-18T07:06:30;95539.84;;;11.30;52.80
20009;BME280;10165;42.662;23.260;2022-10-18T07:08:57;95549.28;;;11.36;52.22
20009;BME280;10165;42.662;23.260;2022-10-18T07:11:25;95553.06;;;10.70;53.68
20009;BME280;10165;42.662;23.260;2022-10-18T07:13:53;95549.50;;;10.44;55.30
20009;BME280;10165;42.662;23.260;2022-10-18T07:16:20;95551.59;;;10.55;55.49
20009;BME280;10165;42.662;23.260;2022-10-18T07:18:49;95552.38;;;10.56;55.09
20009;BME280;10165;42.662;23.260;2022-10-18T07:21:18;95543.31;;;11.39;53.29
20009;BME280;10165;42.662;23.260;2022-10-18T07:23:46;95540.22;;;11.72;52.48
20009;BME280;10165;42.662;23.260;2022-10-18T07:26:22;95543.31;;;11.65;51.71
20009;BME280;10165;42.662;23.260;2022-10-18T07:28:54;95538.44;;;11.59;52.27
20009;BME280;10165;42.662;23.260;2022-10-18T07:31:23;95537.63;;;11.32;53.28
20009;BME280;10165;42.662;23.260;2022-10-18T07:33:51;95539.22;;;11.68;52.73
20009;BME280;10165;42.662;23.260;2022-10-18T07:36:18;95530.25;;;11.55;52.50
20009;BME280;10165;42.662;23.260;2022-10-18T07:38:47;95529.97;;;11.74;52.60
20009;BME280;10165;42.662;23.260;2022-10-18T07:41:13;95512.78;;;11.83;52.37
20009;BME280;10165;42.662;23.260;2022-10-18T07:43:44;95520.34;;;11.98;52.21
20009;BME280;10165;42.662;23.260;2022-10-18T07:46:12;95521.75;;;11.70;51.97
20009;BME280;10165;42.662;23.260;2022-10-18T07:48:39;95520.50;;;11.93;52.23
20009;BME280;10165;42.662;23.260;2022-10-18T07:51:07;95510.69;;;12.15;51.57
20009;BME280;10165;42.662;23.260;2022-10-18T07:53:34;95512.19;;;12.41;51.36
20009;BME280;10165;42.662;23.260;2022-10-18T07:56:04;95520.31;;;12.07;51.38
20009;BME280;10165;42.662;23.260;2022-10-18T07:58:35;95516.41;;;11.87;52.26
20009;BME280;10165;42.662;23.260;2022-10-18T08:01:06;95517.66;;;12.07;52.06
20009;BME280;10165;42.662;23.260;2022-10-18T08:03:34;95506.88;;;12.62;50.92
20009;BME280;10165;42.662;23.260;2022-10-18T08:06:01;95505.28;;;12.32;51.15
20009;BME280;10165;42.662;23.260;2022-10-18T08:08:28;95505.56;;;12.39;51.33
20009;BME280;10165;42.662;23.260;2022-10-18T08:11:01;95506.44;;;12.05;51.93
20009;BME280;10165;42.662;23.260;2022-10-18T08:13:28;95501.06;;;12.14;52.32
20009;BME280;10165;42.662;23.260;2022-10-18T08:16:08;95489.56;;;12.60;50.90
20009;BME280;10165;42.662;23.260;2022-10-18T08:18:36;95490.84;;;12.83;50.30
20009;BME280;10165;42.662;23.260;2022-10-18T08:21:05;95483.34;;;12.97;50.48
20009;BME280;10165;42.662;23.260;2022-10-18T08:23:33;95486.50;;;12.99;50.57
20009;BME280;10165;42.662;23.260;2022-10-18T08:26:02;95482.22;;;13.27;49.77
20009;BME280;10165;42.662;23.260;2022-10-18T08:28:29;95484.78;;;13.45;49.83
20009;BME280;10165;42.662;23.260;2022-10-18T08:30:56;95477.19;;;13.26;49.90
20009;BME280;10165;42.662;23.260;2022-10-18T08:33:23;95472.09;;;13.33;49.88
20009;BME280;10165;42.662;23.260;2022-10-18T08:36:00;95460.03;;;13.39;49.32
20009;BME280;10165;42.662;23.260;2022-10-18T08:38:31;95453.88;;;13.59;49.35
20009;BME280;10165;42.662;23.260;2022-10-18T08:44:09;95448.94;;;13.61;49.33
20009;BME280;10165;42.662;23.260;2022-10-18T08:46:43;95447.31;;;13.81;48.41
20009;BME280;10165;42.662;23.260;2022-10-18T08:49:43;95443.84;;;13.80;47.96
20009;BME280;10165;42.662;23.260;2022-10-18T08:52:40;95435.59;;;13.85;48.17
20009;BME280;10165;42.662;23.260;2022-10-18T08:55:35;95430.94;;;13.95;48.50
20009;BME280;10165;42.662;23.260;2022-10-18T09:00:46;95427.88;;;14.41;47.76
20009;BME280;10165;42.662;23.260;2022-10-18T09:06:14;95439.78;;;13.62;48.73
20009;BME280;10165;42.662;23.260;2022-10-18T09:09:15;95428.28;;;14.31;47.48
20009;BME280;10165;42.662;23.260;2022-10-18T09:17:02;95426.06;;;14.33;47.92
20009;BME280;10165;42.662;23.260;2022-10-18T09:22:13;95427.75;;;14.74;46.49
20009;BME280;10165;42.662;23.260;2022-10-18T09:25:12;95423.81;;;14.83;46.06
20009;BME280;10165;42.662;23.260;2022-10-18T09:27:54;95421.69;;;14.89;46.99
20009;BME280;10165;42.662;23.260;2022-10-18T09:33:23;95409.16;;;14.57;46.62
20009;BME280;10165;42.662;23.260;2022-10-18T09:36:01;95408.56;;;14.88;46.07
20009;BME280;10165;42.662;23.260;2022-10-18T09:38:32;95410.50;;;15.15;45.29
20009;BME280;10165;42.662;23.260;2022-10-18T09:41:09;95413.28;;;14.91;45.68
20009;BME280;10165;42.662;23.260;2022-10-18T09:43:56;95404.91;;;15.20;44.92
20009;BME280;10165;42.662;23.260;2022-10-18T09:46:29;95410.00;;;14.97;44.89
20009;BME280;10165;42.662;23.260;2022-10-18T09:49:02;95398.78;;;15.35;45.02
20009;BME280;10165;42.662;23.260;2022-10-18T09:51:34;95395.59;;;15.45;44.46
20009;BME280;10165;42.662;23.260;2022-10-18T09:54:26;95403.56;;;15.54;44.41
20009;BME280;10165;42.662;23.260;2022-10-18T09:59:30;95390.97;;;15.58;43.96
20009;BME280;10165;42.662;23.260;2022-10-18T10:01:57;95388.63;;;15.56;44.55
20009;BME280;10165;42.662;23.260;2022-10-18T10:04:24;95380.19;;;15.58;43.97
20009;BME280;10165;42.662;23.260;2022-10-18T10:06:53;95372.72;;;15.51;44.19
20009;BME280;10165;42.662;23.260;2022-10-18T10:09:25;95373.63;;;16.02;43.51
20009;BME280;10165;42.662;23.260;2022-10-18T10:11:55;95355.72;;;16.10;42.78
20009;BME280;10165;42.662;23.260;2022-10-18T10:14:25;95357.66;;;16.25;42.72
20009;BME280;10165;42.662;23.260;2022-10-18T10:19:32;95345.56;;;16.35;42.62
20009;BME280;10165;42.662;23.260;2022-10-18T10:22:09;95346.44;;;15.92;42.25
20009;BME280;10165;42.662;23.260;2022-10-18T10:24:47;95342.78;;;15.84;42.97
20009;BME280;10165;42.662;23.260;2022-10-18T10:27:38;95325.97;;;16.22;41.83
20009;BME280;10165;42.662;23.260;2022-10-18T10:32:55;95324.56;;;16.59;40.45
20009;BME280;10165;42.662;23.260;2022-10-18T10:35:34;95320.47;;;16.50;39.99
20009;BME280;10165;42.662;23.260;2022-10-18T10:38:23;95321.06;;;16.94;39.37
20009;BME280;10165;42.662;23.260;2022-10-18T10:40:50;95306.91;;;17.00;38.41
20009;BME280;10165;42.662;23.260;2022-10-18T10:46:15;95296.16;;;16.31;40.29
20009;BME280;10165;42.662;23.260;2022-10-18T10:48:56;95294.00;;;16.55;39.83
20009;BME280;10165;42.662;23.260;2022-10-18T10:51:45;95287.09;;;16.73;38.72
20009;BME280;10165;42.662;23.260;2022-10-18T10:54:36;95281.56;;;17.05;37.98
20009;BME280;10165;42.662;23.260;2022-10-18T10:59:47;95268.28;;;17.38;37.27
20009;BME280;10165;42.662;23.260;2022-10-18T11:04:51;95264.59;;;17.46;36.95
20009;BME280;10165;42.662;23.260;2022-10-18T11:18:09;95255.19;;;17.40;35.28
20009;BME280;10165;42.662;23.260;2022-10-18T11:20:56;95248.34;;;17.65;34.82
20009;BME280;10165;42.662;23.260;2022-10-18T11:23:33;95240.28;;;17.92;34.22
20009;BME280;10165;42.662;23.260;2022-10-18T11:43:12;95201.69;;;18.21;34.18
20009;BME280;10165;42.662;23.260;2022-10-18T11:56:42;95177.63;;;18.42;32.52
20009;BME280;10165;42.662;23.260;2022-10-18T11:59:32;95173.75;;;18.13;32.84
20009;BME280;10165;42.662;23.260;2022-10-18T12:04:53;95168.91;;;18.56;32.18
20009;BME280;10165;42.662;23.260;2022-10-18T12:07:49;95156.78;;;18.76;31.12
20009;BME280;10165;42.662;23.260;2022-10-18T12:10:19;95152.22;;;18.84;32.10
20009;BME280;10165;42.662;23.260;2022-10-18T12:13:12;95141.00;;;18.82;32.17
20009;BME280;10165;42.662;23.260;2022-10-18T12:15:40;95147.63;;;18.88;30.93
20009;BME280;10165;42.662;23.260;2022-10-18T12:18:14;95141.66;;;18.72;30.64
20009;BME280;10165;42.662;23.260;2022-10-18T12:20:52;95133.47;;;18.65;29.89
20009;BME280;10165;42.662;23.260;2022-10-18T12:26:00;95127.34;;;19.08;29.30
20009;BME280;10165;42.662;23.260;2022-10-18T12:28:48;95119.94;;;19.05;29.54
20009;BME280;10165;42.662;23.260;2022-10-18T12:33:55;95121.44;;;18.99;29.18
20009;BME280;10165;42.662;23.260;2022-10-18T12:39:13;95100.34;;;19.19;29.11
20009;BME280;10165;42.662;23.260;2022-10-18T12:41:45;95105.00;;;19.22;28.03
20009;BME280;10165;42.662;23.260;2022-10-18T12:44:29;95107.41;;;18.90;27.09
20009;BME280;10165;42.662;23.260;2022-10-18T12:46:59;95098.84;;;19.28;26.47
20009;BME280;10165;42.662;23.260;2022-10-18T12:49:30;95092.41;;;19.43;26.21
20009;BME280;10165;42.662;23.260;2022-10-18T12:52:00;95091.53;;;19.32;26.08
20009;BME280;10165;42.662;23.260;2022-10-18T12:54:33;95090.19;;;19.56;25.61
20009;BME280;10165;42.662;23.260;2022-10-18T12:57:02;95090.22;;;19.63;25.68
20009;BME280;10165;42.662;23.260;2022-10-18T13:15:01;95067.69;;;19.48;25.51
20009;BME280;10165;42.662;23.260;2022-10-18T13:18:16;95064.09;;;19.37;26.03
20009;BME280;10165;42.662;23.260;2022-10-18T13:23:51;95056.16;;;19.59;24.95
20009;BME280;10165;42.662;23.260;2022-10-18T13:29:29;95047.91;;;19.44;25.67
20009;BME280;10165;42.662;23.260;2022-10-18T13:41:11;95034.78;;;19.50;23.46
20009;BME280;10165;42.662;23.260;2022-10-18T14:03:01;95026.56;;;19.39;26.79
20009;BME280;10165;42.662;23.260;2022-10-18T14:08:40;95011.78;;;19.30;28.56
20009;BME280;10165;42.662;23.260;2022-10-18T14:16:59;95013.72;;;18.78;29.37
20009;BME280;10165;42.662;23.260;2022-10-18T14:20:12;95017.19;;;18.79;27.84
20009;BME280;10165;42.662;23.260;2022-10-18T14:25:48;95010.56;;;18.69;29.11
20009;BME280;10165;42.662;23.260;2022-10-18T14:28:41;95009.00;;;18.68;29.68
20009;BME280;10165;42.662;23.260;2022-10-18T14:31:25;95013.50;;;18.53;29.66
20009;BME280;10165;42.662;23.260;2022-10-18T14:33:55;95002.25;;;18.51;29.52
20009;BME280;10165;42.662;23.260;2022-10-18T14:36:32;95015.66;;;18.41;28.88
20009;BME280;10165;42.662;23.260;2022-10-18T14:39:03;95002.13;;;18.41;29.35
20009;BME280;10165;42.662;23.260;2022-10-18T14:41:36;95007.09;;;18.32;29.19
20009;BME280;10165;42.662;23.260;2022-10-18T14:46:59;95009.56;;;18.10;28.79
20009;BME280;10165;42.662;23.260;2022-10-18T14:49:27;95007.97;;;18.09;29.65
20009;BME280;10165;42.662;23.260;2022-10-18T14:51:56;94997.81;;;17.96;29.70
20009;BME280;10165;42.662;23.260;2022-10-18T14:54:35;95000.38;;;17.85;29.24
20009;BME280;10165;42.662;23.260;2022-10-18T14:57:04;94996.94;;;17.88;29.19
20009;BME280;10165;42.662;23.260;2022-10-18T14:59:38;94987.06;;;17.70;30.04
20009;BME280;10165;42.662;23.260;2022-10-18T15:02:18;94994.78;;;17.71;29.33
20009;BME280;10165;42.662;23.260;2022-10-18T15:04:54;94987.63;;;17.56;29.92
20009;BME280;10165;42.662;23.260;2022-10-18T15:07:21;94989.88;;;17.50;29.85
20009;BME280;10165;42.662;23.260;2022-10-18T15:09:50;94983.69;;;17.50;29.87
20009;BME280;10165;42.662;23.260;2022-10-18T15:12:18;94982.03;;;17.42;29.77
20009;BME280;10165;42.662;23.260;2022-10-18T15:15:26;94983.72;;;17.24;29.60
20009;BME280;10165;42.662;23.260;2022-10-18T15:17:53;94980.19;;;17.19;29.78
20009;BME280;10165;42.662;23.260;2022-10-18T15:20:29;94974.31;;;17.14;30.04
20009;BME280;10165;42.662;23.260;2022-10-18T15:25:50;94972.75;;;16.87;30.99
20009;BME280;10165;42.662;23.260;2022-10-18T15:28:36;94974.53;;;16.76;32.31
20009;BME280;10165;42.662;23.260;2022-10-18T15:31:36;94963.50;;;16.61;33.19
20009;BME280;10165;42.662;23.260;2022-10-18T15:34:18;94957.44;;;16.45;33.41
20009;BME280;10165;42.662;23.260;2022-10-18T15:36:46;94962.09;;;16.48;32.93
20009;BME280;10165;42.662;23.260;2022-10-18T15:39:15;94956.25;;;16.43;33.03
20009;BME280;10165;42.662;23.260;2022-10-18T15:41:46;94956.75;;;16.29;32.89
20009;BME280;10165;42.662;23.260;2022-10-18T15:46:47;94964.63;;;16.15;32.22
20009;BME280;10165;42.662;23.260;2022-10-18T16:00:59;94968.38;;;15.33;38.67
20009;BME280;10165;42.662;23.260;2022-10-18T16:03:27;94971.81;;;15.50;40.13
20009;BME280;10165;42.662;23.260;2022-10-18T16:05:59;94971.13;;;15.53;37.96
20009;BME280;10165;42.662;23.260;2022-10-18T16:08:28;94978.13;;;15.57;37.48
20009;BME280;10165;42.662;23.260;2022-10-18T16:10:57;94977.00;;;15.58;36.92
20009;BME280;10165;42.662;23.260;2022-10-18T16:13:25;94979.72;;;15.58;36.81
20009;BME280;10165;42.662;23.260;2022-10-18T16:15:52;94979.38;;;15.60;36.19
20009;BME280;10165;42.662;23.260;2022-10-18T16:18:21;94979.72;;;15.58;35.83
20009;BME280;10165;42.662;23.260;2022-10-18T16:20:49;94986.94;;;15.54;34.94
20009;BME280;10165;42.662;23.260;2022-10-18T16:23:23;94982.31;;;15.55;35.61
20009;BME280;10165;42.662;23.260;2022-10-18T16:25:50;94979.41;;;15.44;35.22
20009;BME280;10165;42.662;23.260;2022-10-18T16:28:23;94977.25;;;15.34;35.89
20009;BME280;10165;42.662;23.260;2022-10-18T16:30:54;94984.47;;;15.30;35.44
20009;BME280;10165;42.662;23.260;2022-10-18T16:33:21;94988.31;;;15.29;35.60